Time;durP1;ratioP1;P1;durP2;ratioP2;P2;SDS_P1;SDS_P2;PMS_P1;PMS_P2;Temp;Humidity;BMP_temperature;BMP_pressure;BME280_temperature;BME280_humidity;BME280_pressure;Samples;Min_cycle;Max_cycle;Signal;HPM_P1;HPM_P2
2023/12/24 00:01:06;;;;;;;18.48;12.32;;;;;;;-145.63;100.00;61273.97;5076433;28;20104;-66
2023/12/24 00:03:33;;;;;;;19.85;13.32;;;;;;;-145.63;100.00;61273.97;5060267;28;20037;-64
2023/12/24 00:05:59;;;;;;;17.92;12.77;;;;;;;-145.63;100.00;61273.97;5061059;28;20055;-65
2023/12/24 00:08:28;;;;;;;17.55;13.15;;;;;;;-145.63;100.00;61273.97;5062412;28;20302;-64
2023/12/24 00:10:56;;;;;;;18.38;13.38;;;;;;;-145.63;100.00;61273.97;5061647;28;20056;-64
2023/12/24 00:13:22;;;;;;;16.70;13.48;;;;;;;-145.63;100.00;61273.97;5044580;28;20040;-65
2023/12/24 00:15:48;;;;;;;20.90;13.48;;;;;;;-145.63;100.00;61273.97;5048388;28;20029;-65
2023/12/24 00:18:14;;;;;;;15.60;12.70;;;;;;;-145.63;100.00;61273.97;5062107;28;20092;-64
2023/12/24 00:20:39;;;;;;;17.20;13.57;;;;;;;-145.63;100.00;61273.97;5061449;28;20051;-64
2023/12/24 00:23:06;;;;;;;22.77;15.10;;;;;;;-145.63;100.00;61273.97;5060178;28;20262;-64
2023/12/24 00:25:34;;;;;;;21.08;13.88;;;;;;;-145.63;100.00;61273.97;5058875;28;20103;-63
2023/12/24 00:27:59;;;;;;;16.75;13.40;;;;;;;-145.63;100.00;61273.97;5062271;28;20031;-62
2023/12/24 00:30:28;;;;;;;18.73;13.98;;;;;;;-145.63;100.00;61273.97;5062039;28;20029;-63
2023/12/24 00:32:54;;;;;;;20.50;14.02;;;;;;;-145.63;100.00;61273.97;5053266;28;20100;-63
2023/12/24 00:35:21;;;;;;;19.05;14.23;;;;;;;-145.63;100.00;61273.97;5052079;28;20060;-64
2023/12/24 00:37:47;;;;;;;18.38;13.10;;;;;;;-145.63;100.00;61273.97;5060978;28;20029;-64
2023/12/24 00:40:13;;;;;;;19.90;13.52;;;;;;;-145.63;100.00;61273.97;5054003;28;20037;-63
2023/12/24 00:42:39;;;;;;;19.38;14.68;;;;;;;-145.63;100.00;61273.97;5064027;28;20029;-64
2023/12/24 00:45:05;;;;;;;17.85;12.50;;;;;;;-145.63;100.00;61273.97;5064318;28;20021;-64
2023/12/24 00:47:31;;;;;;;21.70;14.43;;;;;;;-145.63;100.00;61273.97;5066245;28;20055;-64
2023/12/24 00:49:57;;;;;;;18.02;12.23;;;;;;;-145.63;100.00;61273.97;5061897;28;20032;-64
2023/12/24 00:52:22;;;;;;;19.33;13.05;;;;;;;-145.63;100.00;61273.97;5049625;28;20055;-63
2023/12/24 00:54:48;;;;;;;18.58;13.30;;;;;;;-145.63;100.00;61273.97;5062146;28;20029;-64
2023/12/24 00:57:14;;;;;;;15.73;11.75;;;;;;;-145.63;100.00;61273.97;5065948;28;20025;-63
2023/12/24 00:59:40;;;;;;;19.40;12.07;;;;;;;-145.63;100.00;61273.97;5061950;28;20033;-64
2023/12/24 01:02:06;;;;;;;18.55;12.48;;;;;;;-145.63;100.00;61273.97;5065727;28;20040;-63
2023/12/24 01:04:31;;;;;;;18.27;12.65;;;;;;;-145.63;100.00;61273.97;5066080;28;20036;-64
2023/12/24 01:06:57;;;;;;;24.67;18.80;;;;;;;-145.63;100.00;61273.97;5065482;28;20032;-63
2023/12/24 01:09:23;;;;;;;19.40;13.80;;;;;;;-145.63;100.00;61273.97;5064571;28;20047;-63
2023/12/24 01:11:49;;;;;;;18.75;14.20;;;;;;;-145.63;100.00;61273.97;5065408;28;20035;-65
2023/12/24 01:14:15;;;;;;;19.08;14.30;;;;;;;-145.63;100.00;61273.97;5062634;28;20045;-64
2023/12/24 01:16:41;;;;;;;17.80;13.57;;;;;;;-145.63;100.00;61273.97;5061435;28;20209;-64
2023/12/24 01:19:07;;;;;;;20.55;13.88;;;;;;;-145.63;100.00;61273.97;5065829;28;20313;-63
2023/12/24 01:21:33;;;;;;;17.23;13.20;;;;;;;-145.63;100.00;61273.97;5063295;28;20044;-64
2023/12/24 01:23:59;;;;;;;25.60;14.07;;;;;;;-145.63;100.00;61273.97;5058311;28;20035;-64
2023/12/24 01:26:25;;;;;;;17.98;13.02;;;;;;;-145.63;100.00;61273.97;5064909;28;20044;-64
2023/12/24 01:28:51;;;;;;;16.85;12.77;;;;;;;-145.63;100.00;61273.97;5060697;28;20028;-64
2023/12/24 01:31:16;;;;;;;20.05;13.02;;;;;;;-145.63;100.00;61273.97;5064889;28;20317;-65
2023/12/24 01:33:42;;;;;;;17.58;13.35;;;;;;;-145.63;100.00;61273.97;5050559;28;20026;-65
2023/12/24 01:36:08;;;;;;;21.25;13.70;;;;;;;-145.63;100.00;61273.97;5053855;28;20041;-65
2023/12/24 01:38:34;;;;;;;17.20;12.52;;;;;;;-145.63;100.00;61273.97;5069263;28;20036;-65
2023/12/24 01:40:59;;;;;;;16.85;11.40;;;;;;;-145.63;100.00;61273.97;5077077;28;20040;-65
2023/12/24 01:43:25;;;;;;;15.85;11.98;;;;;;;-145.63;100.00;61273.97;5043841;28;20060;-65
2023/12/24 01:45:51;;;;;;;14.93;11.30;;;;;;;-145.63;100.00;61273.97;5059676;28;20021;-64
2023/12/24 01:48:18;;;;;;;17.85;11.77;;;;;;;-145.63;100.00;61273.97;5063824;28;20325;-66
2023/12/24 01:50:48;;;;;;;14.52;11.20;;;;;;;-145.63;100.00;61273.97;5063611;28;20035;-65
2023/12/24 01:53:17;;;;;;;16.08;11.77;;;;;;;-145.63;100.00;61273.97;5062696;28;20193;-64
2023/12/24 01:55:44;;;;;;;14.95;11.10;;;;;;;-145.63;100.00;61273.97;5063688;28;20144;-65
2023/12/24 01:58:09;;;;;;;15.63;10.98;;;;;;;-145.63;100.00;61273.97;5063381;28;20025;-65
2023/12/24 02:00:36;;;;;;;15.23;11.80;;;;;;;-145.63;100.00;61273.97;5076462;28;20042;-65
2023/12/24 02:03:02;;;;;;;18.40;10.82;;;;;;;-145.63;100.00;61273.97;5053719;28;20288;-65
2023/12/24 02:05:28;;;;;;;15.95;11.05;;;;;;;-145.63;100.00;61273.97;5047957;28;20025;-64
2023/12/24 02:07:55;;;;;;;13.90;9.90;;;;;;;-145.63;100.00;61273.97;5063004;28;20249;-63
2023/12/24 02:10:22;;;;;;;14.40;10.23;;;;;;;-145.63;100.00;61273.97;5043773;28;20221;-65
2023/12/24 02:12:48;;;;;;;13.02;9.05;;;;;;;-145.63;100.00;61273.97;5061948;28;20045;-65
2023/12/24 02:15:14;;;;;;;15.93;10.40;;;;;;;-145.63;100.00;61273.97;5063413;28;20064;-64
2023/12/24 02:17:42;;;;;;;13.85;10.15;;;;;;;-145.63;100.00;61273.97;5063034;28;20309;-65
2023/12/24 02:20:09;;;;;;;14.02;10.43;;;;;;;-145.63;100.00;61273.97;5061602;28;20028;-64
2023/12/24 02:22:35;;;;;;;16.02;11.05;;;;;;;-145.63;100.00;61273.97;5058955;28;20321;-64
2023/12/24 02:25:01;;;;;;;18.08;10.55;;;;;;;-145.63;100.00;61273.97;5063198;28;20047;-65
2023/12/24 02:27:44;;;;;;;16.73;10.43;;;;;;;-145.63;100.00;61273.97;5056436;28;20060;-65
2023/12/24 02:30:23;;;;;;;16.17;10.52;;;;;;;-145.63;100.00;61273.97;5063207;28;20265;-66
2023/12/24 02:32:56;;;;;;;15.25;10.10;;;;;;;-145.63;100.00;61273.97;5055869;28;20032;-65
2023/12/24 02:35:25;;;;;;;14.63;9.27;;;;;;;-145.63;100.00;61273.97;5002482;28;1266799;-65
2023/12/24 02:37:51;;;;;;;15.40;10.18;;;;;;;-145.63;100.00;61273.97;5063937;28;20123;-65
2023/12/24 02:40:17;;;;;;;12.60;9.30;;;;;;;-145.63;100.00;61273.97;5063959;28;20025;-63
2023/12/24 02:42:42;;;;;;;12.73;9.48;;;;;;;-145.63;100.00;61273.97;5055129;28;20206;-63
2023/12/24 02:45:08;;;;;;;13.75;10.95;;;;;;;-145.63;100.00;61273.97;5063816;28;20124;-62
2023/12/24 02:47:34;;;;;;;11.98;9.57;;;;;;;-145.63;100.00;61273.97;5060620;28;20059;-63
2023/12/24 02:49:59;;;;;;;13.50;9.82;;;;;;;-145.63;100.00;61273.97;5068210;28;20144;-63
2023/12/24 02:52:25;;;;;;;12.45;9.77;;;;;;;-145.63;100.00;61273.97;5058996;28;20028;-63
2023/12/24 02:54:50;;;;;;;14.90;10.30;;;;;;;-145.63;100.00;61273.97;5048410;28;20067;-64
2023/12/24 02:57:16;;;;;;;13.98;10.13;;;;;;;-145.63;100.00;61273.97;5057987;28;20044;-63
2023/12/24 02:59:42;;;;;;;12.80;9.65;;;;;;;-145.63;100.00;61273.97;5057648;28;20025;-63
2023/12/24 03:02:07;;;;;;;14.02;10.20;;;;;;;-145.63;100.00;61273.97;5056453;28;20303;-63
2023/12/24 03:04:33;;;;;;;16.15;10.30;;;;;;;-145.63;100.00;61273.97;5061862;28;20033;-64
2023/12/24 03:06:58;;;;;;;14.20;10.57;;;;;;;-145.63;100.00;61273.97;5058844;28;20020;-64
2023/12/24 03:09:24;;;;;;;13.73;10.05;;;;;;;-145.63;100.00;61273.97;5051680;28;20025;-64
2023/12/24 03:11:50;;;;;;;13.32;10.07;;;;;;;-145.63;100.00;61273.97;5053983;28;20029;-64
2023/12/24 03:14:16;;;;;;;15.07;10.88;;;;;;;-145.63;100.00;61273.97;5063064;28;20045;-65
2023/12/24 03:16:42;;;;;;;16.67;11.45;;;;;;;-145.63;100.00;61273.97;5063165;28;20038;-63
2023/12/24 03:19:07;;;;;;;14.45;10.15;;;;;;;-145.63;100.00;61273.97;5054958;28;20025;-65
2023/12/24 03:21:33;;;;;;;14.65;10.35;;;;;;;-145.63;100.00;61273.97;5061754;28;20037;-65
2023/12/24 03:23:58;;;;;;;13.80;11.23;;;;;;;-145.63;100.00;61273.97;5061830;28;20071;-64
2023/12/24 03:26:24;;;;;;;14.85;10.85;;;;;;;-145.63;100.00;61273.97;5060086;28;20131;-64
2023/12/24 03:28:51;;;;;;;14.75;11.43;;;;;;;-145.63;100.00;61273.97;5046452;28;20029;-65
2023/12/24 03:31:17;;;;;;;15.15;10.95;;;;;;;-145.63;100.00;61273.97;5062843;28;20024;-64
2023/12/24 03:33:43;;;;;;;14.65;11.43;;;;;;;-145.63;100.00;61273.97;5062837;28;20029;-64
2023/12/24 03:36:09;;;;;;;16.10;11.85;;;;;;;-145.63;100.00;61273.97;5062979;28;20037;-65
2023/12/24 03:38:36;;;;;;;14.80;11.43;;;;;;;-145.63;100.00;61273.97;5058541;28;20053;-63
2023/12/24 03:41:02;;;;;;;15.10;11.40;;;;;;;-145.63;100.00;61273.97;5062706;28;20052;-64
2023/12/24 03:43:29;;;;;;;18.30;12.45;;;;;;;-145.63;100.00;61273.97;5042842;28;20041;-64
2023/12/24 03:45:55;;;;;;;21.65;12.45;;;;;;;-145.63;100.00;61273.97;5048697;28;20036;-64
2023/12/24 03:48:20;;;;;;;18.85;11.85;;;;;;;-145.63;100.00;61273.97;5062844;28;20025;-64
2023/12/24 03:50:47;;;;;;;17.38;12.38;;;;;;;-145.63;100.00;61273.97;5062220;28;20249;-63
2023/12/24 03:53:12;;;;;;;17.23;11.70;;;;;;;-145.63;100.00;61273.97;5062064;28;20036;-62
2023/12/24 03:55:38;;;;;;;18.02;12.88;;;;;;;-145.63;100.00;61273.97;5062294;28;20227;-62
2023/12/24 03:58:03;;;;;;;19.52;13.23;;;;;;;-145.63;100.00;61273.97;5062449;28;20021;-65
2023/12/24 04:00:29;;;;;;;19.98;12.65;;;;;;;-145.63;100.00;61273.97;5062113;28;20021;-65
2023/12/24 04:02:55;;;;;;;17.77;13.52;;;;;;;-145.63;100.00;61273.97;5062246;28;20021;-63
2023/12/24 04:05:21;;;;;;;20.25;13.40;;;;;;;-145.63;100.00;61273.97;5061808;28;20232;-64
2023/12/24 04:07:47;;;;;;;19.45;12.85;;;;;;;-145.63;100.00;61273.97;5062396;28;20021;-64
2023/12/24 04:10:13;;;;;;;18.30;13.02;;;;;;;-145.63;100.00;61273.97;5062150;28;20039;-63
2023/12/24 04:12:40;;;;;;;21.30;14.07;;;;;;;-145.63;100.00;61273.97;5062177;28;20068;-64
2023/12/24 04:15:07;;;;;;;19.90;12.48;;;;;;;-145.63;100.00;61273.97;5058233;28;20024;-64
2023/12/24 04:17:34;;;;;;;17.45;12.65;;;;;;;-145.63;100.00;61273.97;5062090;28;20123;-65
2023/12/24 04:20:04;;;;;;;19.33;13.25;;;;;;;-145.63;100.00;61273.97;5062042;28;20079;-64
2023/12/24 04:22:31;;;;;;;18.40;12.48;;;;;;;-145.63;100.00;61273.97;5058467;28;20086;-64
2023/12/24 04:25:00;;;;;;;21.70;12.50;;;;;;;-145.63;100.00;61273.97;5048227;28;20063;-64
2023/12/24 04:27:26;;;;;;;14.43;11.93;;;;;;;-145.63;100.00;61273.97;5062300;28;20056;-65
2023/12/24 04:29:52;;;;;;;17.48;12.07;;;;;;;-145.63;100.00;61273.97;5062184;28;20021;-66
2023/12/24 04:32:20;;;;;;;17.77;11.57;;;;;;;-145.63;100.00;61273.97;5060919;28;20029;-66
2023/12/24 04:34:46;;;;;;;17.25;11.68;;;;;;;-145.63;100.00;61273.97;5042214;28;20079;-65
2023/12/24 04:37:11;;;;;;;17.80;11.48;;;;;;;-145.63;100.00;61273.97;5058941;28;20032;-65
2023/12/24 04:39:37;;;;;;;19.25;11.50;;;;;;;-145.63;100.00;61273.97;5062188;28;20040;-66
2023/12/24 04:42:03;;;;;;;17.55;11.90;;;;;;;-145.63;100.00;61273.97;5061703;28;20056;-66
2023/12/24 04:44:28;;;;;;;15.75;11.18;;;;;;;-145.63;100.00;61273.97;5058735;28;20040;-66
2023/12/24 04:46:54;;;;;;;16.27;11.52;;;;;;;-145.63;100.00;61273.97;5054790;28;20051;-66
2023/12/24 04:49:20;;;;;;;16.33;9.93;;;;;;;-145.63;100.00;61273.97;5056173;28;20021;-67
2023/12/24 04:51:46;;;;;;;16.15;10.00;;;;;;;-145.63;100.00;61273.97;5051711;28;20025;-65
2023/12/24 04:54:12;;;;;;;17.90;10.38;;;;;;;-145.63;100.00;61273.97;5053207;28;20033;-65
2023/12/24 04:56:37;;;;;;;12.20;9.68;;;;;;;-145.63;100.00;61273.97;5055608;28;20056;-65
2023/12/24 04:59:03;;;;;;;14.93;9.80;;;;;;;-145.63;100.00;61273.97;5042103;28;20029;-65
2023/12/24 05:01:30;;;;;;;14.73;10.45;;;;;;;-145.63;100.00;61273.97;5060962;28;20306;-63
2023/12/24 05:03:55;;;;;;;14.55;10.70;;;;;;;-145.63;100.00;61273.97;5061686;28;20286;-63
2023/12/24 05:06:21;;;;;;;15.10;10.10;;;;;;;-145.63;100.00;61273.97;5057432;28;20045;-64
2023/12/24 05:08:47;;;;;;;15.48;10.52;;;;;;;-145.63;100.00;61273.97;5061788;28;20037;-65
2023/12/24 05:11:13;;;;;;;15.90;11.25;;;;;;;-145.63;100.00;61273.97;5061216;28;20042;-65
2023/12/24 05:13:39;;;;;;;16.85;11.55;;;;;;;-145.63;100.00;61273.97;5061855;28;20392;-66
2023/12/24 05:16:05;;;;;;;14.73;10.57;;;;;;;-145.63;100.00;61273.97;5049711;28;20032;-64
2023/12/24 05:18:33;;;;;;;15.13;11.25;;;;;;;-145.63;100.00;61273.97;5061466;28;20310;-66
2023/12/24 05:20:59;;;;;;;16.83;10.82;;;;;;;-145.63;100.00;61273.97;5057980;28;20025;-66
2023/12/24 05:23:26;;;;;;;16.45;11.13;;;;;;;-145.63;100.00;61273.97;5060129;28;20087;-65
2023/12/24 05:25:52;;;;;;;15.02;10.80;;;;;;;-145.63;100.00;61273.97;5061592;28;20099;-65
2023/12/24 05:28:17;;;;;;;16.30;11.23;;;;;;;-145.63;100.00;61273.97;5062282;28;20031;-66
2023/12/24 05:30:46;;;;;;;16.55;11.60;;;;;;;-145.63;100.00;61273.97;5064948;28;20025;-65
2023/12/24 05:33:12;;;;;;;15.98;11.00;;;;;;;-145.63;100.00;61273.97;5056613;28;20097;-65
2023/12/24 05:35:38;;;;;;;18.25;11.75;;;;;;;-145.63;100.00;61273.97;5051813;28;20040;-65
2023/12/24 05:38:03;;;;;;;18.13;12.23;;;;;;;-145.63;100.00;61273.97;5064934;28;20056;-64
2023/12/24 05:40:29;;;;;;;15.75;11.38;;;;;;;-145.63;100.00;61273.97;5045951;28;20053;-65
2023/12/24 05:42:55;;;;;;;16.45;12.40;;;;;;;-145.63;100.00;61273.97;5064444;28;20091;-64
2023/12/24 05:45:21;;;;;;;15.10;11.50;;;;;;;-145.63;100.00;61273.97;5063624;28;20321;-63
2023/12/24 05:47:46;;;;;;;15.60;11.55;;;;;;;-145.63;100.00;61273.97;5064037;28;20063;-64
2023/12/24 05:50:12;;;;;;;17.40;12.20;;;;;;;-145.63;100.00;61273.97;5064863;28;20036;-65
2023/12/24 05:52:40;;;;;;;17.80;11.93;;;;;;;-145.63;100.00;61273.97;5064268;28;20033;-62
2023/12/24 05:55:07;;;;;;;16.02;11.38;;;;;;;-145.63;100.00;61273.97;5064935;28;20096;-63
2023/12/24 05:57:33;;;;;;;15.60;11.15;;;;;;;-145.63;100.00;61273.97;5055493;28;20033;-63
2023/12/24 05:59:58;;;;;;;16.20;11.90;;;;;;;-145.63;100.00;61273.97;5058277;28;20153;-64
2023/12/24 06:02:24;;;;;;;14.65;10.90;;;;;;;-145.63;100.00;61273.97;5059666;28;20293;-64
2023/12/24 06:04:50;;;;;;;18.23;11.18;;;;;;;-145.63;100.00;61273.97;5064832;28;20032;-64
2023/12/24 06:07:15;;;;;;;14.70;11.10;;;;;;;-145.63;100.00;61273.97;5064462;28;20025;-64
2023/12/24 06:09:41;;;;;;;16.02;11.82;;;;;;;-145.63;100.00;61273.97;5061071;28;20029;-63
2023/12/24 06:12:07;;;;;;;14.55;11.60;;;;;;;-145.63;100.00;61273.97;5056699;28;20029;-65
2023/12/24 06:14:33;;;;;;;15.80;11.90;;;;;;;-145.63;100.00;61273.97;5056366;28;20053;-64
2023/12/24 06:16:59;;;;;;;15.45;11.85;;;;;;;-145.63;100.00;61273.97;5056322;28;20052;-65
2023/12/24 06:19:25;;;;;;;15.75;11.30;;;;;;;-145.63;100.00;61273.97;5079609;28;20051;-65
2023/12/24 06:21:50;;;;;;;15.13;11.63;;;;;;;-145.63;100.00;61273.97;5079638;28;20209;-64
2023/12/24 06:24:21;;;;;;;16.10;12.27;;;;;;;-145.63;100.00;61273.97;5055299;28;20067;-62
2023/12/24 06:26:47;;;;;;;16.48;12.10;;;;;;;-145.63;100.00;61273.97;5055088;28;20040;-63
2023/12/24 06:29:13;;;;;;;15.60;10.77;;;;;;;-145.63;100.00;61273.97;5062951;28;20037;-63
2023/12/24 06:31:39;;;;;;;16.50;10.50;;;;;;;-145.63;100.00;61273.97;5063385;28;20296;-64
2023/12/24 06:34:05;;;;;;;13.27;9.68;;;;;;;-145.63;100.00;61273.97;5062074;28;20040;-64
2023/12/24 06:36:30;;;;;;;12.73;10.00;;;;;;;-145.63;100.00;61273.97;5064005;28;20104;-64
2023/12/24 06:38:56;;;;;;;12.10;9.82;;;;;;;-145.63;100.00;61273.97;5062938;28;20029;-63
2023/12/24 06:41:24;;;;;;;13.70;9.95;;;;;;;-145.63;100.00;61273.97;5062091;28;20036;-63
2023/12/24 06:43:50;;;;;;;13.98;10.15;;;;;;;-145.63;100.00;61273.97;5060800;28;20094;-64
2023/12/24 06:46:16;;;;;;;13.20;10.77;;;;;;;-145.63;100.00;61273.97;5063027;28;20480;-64
2023/12/24 06:48:41;;;;;;;14.68;10.90;;;;;;;-145.63;100.00;61273.97;5061668;28;20024;-62
2023/12/24 06:51:07;;;;;;;14.25;10.40;;;;;;;-145.63;100.00;61273.97;5063182;28;20221;-63
2023/12/24 06:53:34;;;;;;;16.80;11.00;;;;;;;-145.63;100.00;61273.97;5061155;28;20048;-64
2023/12/24 06:56:00;;;;;;;12.93;10.65;;;;;;;-145.63;100.00;61273.97;5061055;28;20031;-64
2023/12/24 06:58:25;;;;;;;13.23;10.57;;;;;;;-145.63;100.00;61273.97;5063692;28;20056;-64
2023/12/24 07:00:51;;;;;;;13.13;10.57;;;;;;;-145.63;100.00;61273.97;5052524;28;20028;-64
2023/12/24 07:03:17;;;;;;;15.15;10.63;;;;;;;-145.63;100.00;61273.97;5063297;28;20033;-64
2023/12/24 07:05:43;;;;;;;14.75;9.75;;;;;;;-145.63;100.00;61273.97;5063207;28;20340;-64
2023/12/24 07:08:09;;;;;;;13.02;9.52;;;;;;;-145.63;100.00;61273.97;5063642;28;20056;-63
2023/12/24 07:10:36;;;;;;;12.43;10.38;;;;;;;-145.63;100.00;61273.97;5062574;28;20029;-63
2023/12/24 07:13:02;;;;;;;13.73;10.77;;;;;;;-145.63;100.00;61273.97;5061852;28;20237;-63
2023/12/24 07:15:27;;;;;;;13.80;10.48;;;;;;;-145.63;100.00;61273.97;5062239;28;20021;-65
2023/12/24 07:17:53;;;;;;;12.70;10.35;;;;;;;-145.63;100.00;61273.97;5068035;28;20309;-62
2023/12/24 07:20:19;;;;;;;13.48;10.70;;;;;;;-145.63;100.00;61273.97;5074955;28;20356;-63
2023/12/24 07:22:44;;;;;;;12.98;10.13;;;;;;;-145.63;100.00;61273.97;5062940;28;20028;-64
2023/12/24 07:25:10;;;;;;;14.93;11.10;;;;;;;-145.63;100.00;61273.97;5051672;28;20025;-65
2023/12/24 07:27:36;;;;;;;14.45;10.70;;;;;;;-145.63;100.00;61273.97;5052066;28;20040;-65
2023/12/24 07:30:03;;;;;;;17.58;11.70;;;;;;;-145.63;100.00;61273.97;5048509;28;20091;-64
2023/12/24 07:32:30;;;;;;;14.73;11.63;;;;;;;-145.63;100.00;61273.97;5065102;28;20024;-63
2023/12/24 07:34:57;;;;;;;15.35;11.90;;;;;;;-145.63;100.00;61273.97;5083125;28;20090;-65
2023/12/24 07:37:23;;;;;;;14.35;11.63;;;;;;;-145.63;100.00;61273.97;5062668;28;20306;-64
2023/12/24 07:39:49;;;;;;;15.60;11.93;;;;;;;-145.63;100.00;61273.97;5050813;28;20345;-65
2023/12/24 07:42:14;;;;;;;18.90;12.50;;;;;;;-145.63;100.00;61273.97;5068472;28;20036;-67
2023/12/24 07:44:40;;;;;;;16.92;12.40;;;;;;;-145.63;100.00;61273.97;5079919;28;20025;-62
2023/12/24 07:47:06;;;;;;;16.20;12.40;;;;;;;-145.63;100.00;61273.97;5062430;28;20074;-63
2023/12/24 07:49:32;;;;;;;18.23;13.38;;;;;;;-145.63;100.00;61273.97;5055257;28;20051;-62
2023/12/24 07:51:58;;;;;;;16.77;12.43;;;;;;;-145.63;100.00;61273.97;5056828;28;20032;-63
2023/12/24 07:54:24;;;;;;;17.25;13.25;;;;;;;-145.63;100.00;61273.97;5053973;28;20210;-63
2023/12/24 07:56:49;;;;;;;16.55;12.73;;;;;;;-145.63;100.00;61273.97;5049319;28;20033;-62
2023/12/24 07:59:15;;;;;;;19.75;13.20;;;;;;;-145.63;100.00;61273.97;5042324;28;20333;-65
2023/12/24 08:01:41;;;;;;;23.15;13.10;;;;;;;-145.63;100.00;61273.97;5061437;28;20032;-65
2023/12/24 08:04:06;;;;;;;17.23;13.52;;;;;;;-145.63;100.00;61273.97;5062206;28;20024;-65
2023/12/24 08:06:32;;;;;;;16.60;11.45;;;;;;;-145.63;100.00;61273.97;5059993;28;20016;-67
2023/12/24 08:08:58;;;;;;;16.20;12.95;;;;;;;-145.63;100.00;61273.97;5055127;28;20078;-66
2023/12/24 08:11:24;;;;;;;15.75;10.98;;;;;;;-145.63;100.00;61273.97;5060205;28;20021;-65
2023/12/24 08:13:49;;;;;;;14.70;11.10;;;;;;;-145.63;100.00;61273.97;5056159;28;20040;-65
2023/12/24 08:16:15;;;;;;;18.35;11.55;;;;;;;-145.63;100.00;61273.97;5057849;28;20047;-65
2023/12/24 08:18:40;;;;;;;13.88;10.75;;;;;;;-145.63;100.00;61273.97;5051179;28;20021;-65
2023/12/24 08:21:10;;;;;;;16.13;10.90;;;;;;;-145.63;100.00;61273.97;5048175;28;20135;-65
2023/12/24 08:23:37;;;;;;;18.50;10.80;;;;;;;-145.63;100.00;61273.97;5062109;28;20043;-64
2023/12/24 08:26:04;;;;;;;13.95;11.18;;;;;;;-145.63;100.00;61273.97;5062044;28;20306;-65
2023/12/24 08:28:29;;;;;;;15.43;10.18;;;;;;;-145.63;100.00;61273.97;5061242;28;20032;-65
2023/12/24 08:30:55;;;;;;;11.73;9.23;;;;;;;-145.63;100.00;61273.97;5061464;28;20059;-63
2023/12/24 08:33:21;;;;;;;12.43;8.80;;;;;;;-145.63;100.00;61273.97;5060586;28;20025;-65
2023/12/24 08:35:47;;;;;;;11.32;8.45;;;;;;;-145.63;100.00;61273.97;5059989;28;20045;-63
2023/12/24 08:38:12;;;;;;;12.00;8.50;;;;;;;-145.63;100.00;61273.97;5060557;28;20225;-64
2023/12/24 08:40:38;;;;;;;14.13;8.60;;;;;;;-145.63;100.00;61273.97;5060646;28;20021;-65
2023/12/24 08:43:04;;;;;;;11.43;7.85;;;;;;;-145.63;100.00;61273.97;5060585;28;20118;-63
2023/12/24 08:45:29;;;;;;;12.32;7.82;;;;;;;-145.63;100.00;61273.97;5060886;28;20183;-64
2023/12/24 08:47:55;;;;;;;10.55;8.30;;;;;;;-145.63;100.00;61273.97;5060877;28;20201;-64
2023/12/24 08:50:21;;;;;;;11.20;8.13;;;;;;;-145.63;100.00;61273.97;5061513;28;20088;-64
2023/12/24 08:52:47;;;;;;;10.32;8.02;;;;;;;-145.63;100.00;61273.97;5059752;28;20237;-65
2023/12/24 08:55:13;;;;;;;10.82;8.07;;;;;;;-145.63;100.00;61273.97;5060890;28;20078;-63
2023/12/24 08:57:39;;;;;;;15.30;8.45;;;;;;;-145.63;100.00;61273.97;5061893;28;20301;-63
2023/12/24 09:00:05;;;;;;;12.70;7.60;;;;;;;-145.63;100.00;61273.97;5060704;28;20313;-64
2023/12/24 09:02:31;;;;;;;12.15;7.63;;;;;;;-145.63;100.00;61273.97;5061255;28;20090;-64
2023/12/24 09:04:58;;;;;;;9.85;7.15;;;;;;;-145.63;100.00;61273.97;5065110;28;20052;-63
2023/12/24 09:07:24;;;;;;;9.02;7.18;;;;;;;-145.63;100.00;61273.97;5060745;28;20093;-64
2023/12/24 09:09:51;;;;;;;11.77;7.90;;;;;;;-145.63;100.00;61273.97;5065435;28;20254;-64
2023/12/24 09:12:18;;;;;;;9.93;8.48;;;;;;;-145.63;100.00;61273.97;5065065;28;20029;-64
2023/12/24 09:14:44;;;;;;;9.75;8.43;;;;;;;-145.63;100.00;61273.97;5063612;28;20028;-63
2023/12/24 09:17:09;;;;;;;11.20;8.30;;;;;;;-145.63;100.00;61273.97;5064696;28;20029;-63
2023/12/24 09:19:35;;;;;;;10.70;7.65;;;;;;;-145.63;100.00;61273.97;5065150;28;20043;-64
2023/12/24 09:22:01;;;;;;;10.93;8.23;;;;;;;-145.63;100.00;61273.97;5051931;28;20065;-65
2023/12/24 09:24:26;;;;;;;9.73;6.88;;;;;;;-145.63;100.00;61273.97;5050980;28;20029;-65
2023/12/24 09:26:52;;;;;;;10.77;8.68;;;;;;;-145.63;100.00;61273.97;5056042;28;20025;-65
2023/12/24 09:29:22;;;;;;;8.25;7.30;;;;;;;-145.63;100.00;61273.97;5064166;28;20051;-67
2023/12/24 09:31:50;;;;;;;9.65;7.72;;;;;;;-145.63;100.00;61273.97;5063758;28;20063;-67
2023/12/24 09:34:16;;;;;;;9.25;7.80;;;;;;;-145.63;100.00;61273.97;5060574;28;20232;-65
2023/12/24 09:36:42;;;;;;;10.55;7.40;;;;;;;-145.63;100.00;61273.97;5060515;28;20032;-66
2023/12/24 09:39:11;;;;;;;9.52;7.43;;;;;;;-145.63;100.00;61273.97;5049768;28;20349;-68
2023/12/24 09:41:39;;;;;;;9.18;7.60;;;;;;;-145.63;100.00;61273.97;5076611;28;20099;-66
2023/12/24 09:44:08;;;;;;;10.30;7.50;;;;;;;-145.63;100.00;61273.97;5063777;28;20028;-69
2023/12/24 09:46:34;;;;;;;9.38;7.38;;;;;;;-145.63;100.00;61273.97;5046257;28;20063;-65
2023/12/24 09:49:00;;;;;;;9.18;7.75;;;;;;;-145.63;100.00;61273.97;5064756;28;20345;-66
2023/12/24 09:51:26;;;;;;;8.40;7.13;;;;;;;-145.63;100.00;61273.97;5073936;28;20206;-66
2023/12/24 09:53:54;;;;;;;8.85;7.18;;;;;;;-145.63;100.00;61273.97;5064029;28;20272;-67
2023/12/24 09:56:20;;;;;;;9.27;7.32;;;;;;;-145.63;100.00;61273.97;5064825;28;20285;-65
2023/12/24 09:58:46;;;;;;;7.90;6.28;;;;;;;-145.63;100.00;61273.97;5063626;28;20036;-65
2023/12/24 10:01:13;;;;;;;7.40;6.10;;;;;;;-145.63;100.00;61273.97;5063945;28;20369;-66
2023/12/24 10:03:38;;;;;;;8.00;6.40;;;;;;;-145.63;100.00;61273.97;5054720;28;20037;-65
2023/12/24 10:06:08;;;;;;;7.40;6.32;;;;;;;-145.63;100.00;61273.97;5060141;28;20052;-63
2023/12/24 10:08:35;;;;;;;6.63;5.55;;;;;;;-145.63;100.00;61273.97;5063657;28;20067;-64
2023/12/24 10:11:15;;;;;;;8.20;6.30;;;;;;;-145.63;100.00;61273.97;5064424;28;20066;-64
2023/12/24 10:13:44;;;;;;;13.32;9.65;;;;;;;-145.63;100.00;61273.97;5053248;28;20033;-62
2023/12/24 10:16:10;;;;;;;20.48;15.52;;;;;;;-145.63;100.00;61273.97;5063393;28;20024;-66
2023/12/24 10:18:36;;;;;;;9.70;7.10;;;;;;;-145.63;100.00;61273.97;5055409;28;20348;-64
2023/12/24 10:21:09;;;;;;;7.95;6.03;;;;;;;-145.63;100.00;61273.97;5057547;28;20352;-65
2023/12/24 10:23:36;;;;;;;8.15;6.78;;;;;;;-145.63;100.00;61273.97;5064036;28;20029;-63
2023/12/24 10:26:07;;;;;;;6.68;5.70;;;;;;;-145.63;100.00;61273.97;5064131;28;20060;-63
2023/12/24 10:28:33;;;;;;;9.20;7.20;;;;;;;-145.63;100.00;61273.97;5064168;28;20086;-66
2023/12/24 10:31:07;;;;;;;7.03;6.22;;;;;;;-145.63;100.00;61273.97;5063679;28;20321;-65
2023/12/24 10:33:34;;;;;;;9.55;5.93;;;;;;;-145.63;100.00;61273.97;5060340;28;20029;-65
2023/12/24 10:36:00;;;;;;;7.90;6.20;;;;;;;-145.63;100.00;61273.97;5062709;28;20049;-65
2023/12/24 10:38:27;;;;;;;7.38;6.47;;;;;;;-145.63;100.00;61273.97;5064469;28;20306;-66
2023/12/24 10:40:53;;;;;;;7.78;5.85;;;;;;;-145.63;100.00;61273.97;5052671;28;20032;-66
2023/12/24 10:43:19;;;;;;;8.43;6.43;;;;;;;-145.63;100.00;61273.97;5055569;28;20092;-63
2023/12/24 10:45:45;;;;;;;9.27;6.78;;;;;;;-145.63;100.00;61273.97;5063408;28;20033;-67
2023/12/24 10:48:11;;;;;;;16.95;11.52;;;;;;;-145.63;100.00;61273.97;5058431;28;20040;-66
2023/12/24 10:50:37;;;;;;;8.98;7.25;;;;;;;-145.63;100.00;61273.97;5059672;28;20033;-67
2023/12/24 10:53:03;;;;;;;11.40;7.68;;;;;;;-145.63;100.00;61273.97;5063788;28;20036;-65